createdAt,value
2023-04-11T00:00:59.063Z,9.20
2023-04-11T00:03:27.750Z,9.20
2023-04-11T00:05:56.438Z,9.20
2023-04-11T00:08:25.953Z,9.20
2023-04-11T00:10:53.950Z,9.20
2023-04-11T00:13:23.847Z,9.20
2023-04-11T00:15:55.164Z,9.30
2023-04-11T00:18:25.461Z,9.30
2023-04-11T00:20:53.622Z,9.30
2023-04-11T00:23:21.730Z,9.30
2023-04-11T00:25:51.131Z,9.30
2023-04-11T00:28:19.372Z,9.30
2023-04-11T00:30:47.720Z,9.30
2023-04-11T00:33:16.607Z,9.30
2023-04-11T00:35:45.788Z,9.30
2023-04-11T00:38:13.911Z,9.30
2023-04-11T00:40:42.070Z,9.30
2023-04-11T00:43:11.632Z,9.30
2023-04-11T00:45:39.947Z,9.30
2023-04-11T00:48:08.278Z,9.30
2023-04-11T00:50:41.066Z,9.30
2023-04-11T00:53:10.206Z,9.30
2023-04-11T00:55:38.435Z,9.30
2023-04-11T00:58:09.158Z,9.30
2023-04-11T01:00:38.723Z,9.40
2023-04-11T01:03:07.034Z,9.40
2023-04-11T01:05:36.148Z,9.40
2023-04-11T01:08:04.489Z,9.30
2023-04-11T01:10:33.093Z,9.30
2023-04-11T01:13:02.379Z,9.30
2023-04-11T01:15:31.107Z,9.30
2023-04-11T01:18:01.998Z,9.30
2023-04-11T01:20:31.917Z,9.30
2023-04-11T01:23:02.425Z,9.30
2023-04-11T01:25:31.908Z,9.30
2023-04-11T01:28:00.101Z,9.30
2023-04-11T01:30:28.265Z,9.30
2023-04-11T01:32:56.363Z,9.30
2023-04-11T01:35:24.983Z,9.30
2023-04-11T01:37:53.380Z,9.30
2023-04-11T01:40:23.756Z,9.30
2023-04-11T01:42:53.878Z,9.20
2023-04-11T01:45:23.063Z,9.20
2023-04-11T01:47:55.006Z,9.20
2023-04-11T01:50:23.312Z,9.20
2023-04-11T01:52:52.833Z,9.30
2023-04-11T01:55:20.941Z,9.30
2023-04-11T01:57:48.966Z,9.30
2023-04-11T02:00:19.628Z,9.30
2023-04-11T02:02:47.814Z,9.30
2023-04-11T02:05:15.928Z,9.30
2023-04-11T02:07:45.151Z,9.30
2023-04-11T02:10:13.383Z,9.30
2023-04-11T02:12:41.403Z,9.30
2023-04-11T02:15:10.062Z,9.30
2023-04-11T02:17:45.690Z,9.30
2023-04-11T02:20:14.539Z,9.30
2023-04-11T02:22:42.995Z,9.30
2023-04-11T02:25:11.258Z,9.30
2023-04-11T02:27:39.335Z,9.30
2023-04-11T02:30:08.486Z,9.30
2023-04-11T02:32:38.390Z,9.30
2023-04-11T02:35:08.227Z,9.30
2023-04-11T02:37:36.439Z,9.30
2023-04-11T02:40:04.974Z,9.30
2023-04-11T02:42:33.090Z,9.30
2023-04-11T02:45:01.203Z,9.30
2023-04-11T02:47:29.314Z,9.40
2023-04-11T02:49:57.462Z,9.30
2023-04-11T02:52:27.169Z,9.30
2023-04-11T02:54:55.684Z,9.40
2023-04-11T02:57:23.792Z,9.30
2023-04-11T02:59:51.750Z,9.30
2023-04-11T03:02:19.845Z,9.30
2023-04-11T03:04:47.959Z,9.30
2023-04-11T03:07:15.952Z,9.30
2023-04-11T03:09:45.373Z,9.30
2023-04-11T03:12:13.428Z,9.20
2023-04-11T03:14:41.511Z,9.20
2023-04-11T03:17:09.562Z,9.20
2023-04-11T03:19:37.584Z,9.20
2023-04-11T03:22:06.218Z,9.20
2023-04-11T03:24:34.323Z,9.20
2023-04-11T03:27:03.744Z,9.10
2023-04-11T03:29:31.953Z,9.10
2023-04-11T03:32:00.039Z,9.10
2023-04-11T03:34:28.344Z,9.10
2023-04-11T03:36:56.360Z,9.00
2023-04-11T03:39:24.720Z,9.00
2023-04-11T03:41:52.761Z,8.90
2023-04-11T03:44:22.098Z,8.90
2023-04-11T03:46:50.187Z,8.90
2023-04-11T03:49:18.256Z,8.90
2023-04-11T03:51:46.413Z,8.90
2023-04-11T03:54:14.380Z,8.90
2023-04-11T03:56:42.516Z,8.90
2023-04-11T03:59:10.533Z,8.80
2023-04-11T04:01:39.910Z,8.80
2023-04-11T04:04:08.306Z,8.80
2023-04-11T04:06:36.804Z,8.80
2023-04-11T04:09:05.067Z,8.70
2023-04-11T04:11:33.144Z,8.70
2023-04-11T04:14:02.236Z,8.60
2023-04-11T04:16:30.318Z,8.60
2023-04-11T04:18:59.697Z,8.50
2023-04-11T04:21:32.378Z,8.50
2023-04-11T04:24:03.780Z,8.50
2023-04-11T04:26:32.045Z,8.50
2023-04-11T04:29:04.701Z,8.50
2023-04-11T04:31:34.236Z,8.50
2023-04-11T04:34:08.649Z,8.40
2023-04-11T04:36:46.166Z,8.40
2023-04-11T04:39:17.862Z,8.40
2023-04-11T04:41:49.986Z,8.40
2023-04-11T04:44:18.000Z,8.40
2023-04-11T04:46:46.100Z,8.40
2023-04-11T04:49:15.615Z,8.40
2023-04-11T04:51:43.582Z,8.40
2023-04-11T04:54:11.516Z,8.40
2023-04-11T04:56:41.492Z,8.40
2023-04-11T04:59:14.535Z,8.50
2023-04-11T05:01:42.814Z,8.50
2023-04-11T05:04:11.383Z,8.50
2023-04-11T05:06:41.285Z,8.50
2023-04-11T05:09:09.482Z,8.50
2023-04-11T05:11:37.439Z,8.50
2023-04-11T05:14:05.425Z,8.50
2023-04-11T05:16:33.404Z,8.50
2023-04-11T05:19:01.469Z,8.50
2023-04-11T05:21:29.605Z,8.50
2023-04-11T05:23:58.949Z,8.60
2023-04-11T05:26:27.565Z,8.60
2023-04-11T05:28:55.592Z,8.70
2023-04-11T05:31:25.625Z,8.70
2023-04-11T05:33:53.793Z,8.70
2023-04-11T05:36:21.923Z,8.60
2023-04-11T05:38:50.005Z,7.90
2023-04-11T05:41:19.383Z,7.40
2023-04-11T05:43:47.373Z,7.00
2023-04-11T05:46:15.579Z,6.90
2023-04-11T05:48:43.658Z,6.70
2023-04-11T05:51:11.791Z,6.60
2023-04-11T05:53:39.843Z,6.60
2023-04-11T05:56:08.839Z,6.50
2023-04-11T05:58:38.339Z,6.50
2023-04-11T06:01:07.408Z,6.50
2023-04-11T06:03:36.003Z,6.60
2023-04-11T06:06:04.140Z,6.60
2023-04-11T06:08:32.452Z,6.60
2023-04-11T06:11:00.472Z,6.70
2023-04-11T06:13:28.454Z,6.80
2023-04-11T06:15:57.973Z,6.90
2023-04-11T06:18:25.950Z,6.90
2023-04-11T06:20:54.036Z,6.90
2023-04-11T06:23:22.061Z,7.00
2023-04-11T06:25:50.038Z,7.00
2023-04-11T06:28:18.071Z,7.00
2023-04-11T06:30:46.228Z,7.00
2023-04-11T06:33:15.592Z,6.90
2023-04-11T06:35:43.614Z,6.90
2023-04-11T06:38:11.674Z,6.90
2023-04-11T06:40:39.703Z,6.80
2023-04-11T06:43:07.782Z,6.70
2023-04-11T06:45:35.754Z,6.70
2023-04-11T06:48:03.811Z,6.70
2023-04-11T06:50:33.174Z,6.70
2023-04-11T06:53:01.167Z,6.70
2023-04-11T06:55:29.238Z,6.70
2023-04-11T06:57:57.443Z,6.70
2023-04-11T07:00:25.873Z,6.70
2023-04-11T07:02:54.384Z,6.70
2023-04-11T07:05:22.618Z,6.70
2023-04-11T07:07:51.946Z,6.70
2023-04-11T07:10:20.313Z,6.70
2023-04-11T07:12:48.401Z,6.80
2023-04-11T07:15:16.564Z,6.90
2023-04-11T07:17:44.964Z,6.90
2023-04-11T07:20:13.727Z,7.00
2023-04-11T07:22:43.751Z,7.00
2023-04-11T07:25:13.404Z,7.10
2023-04-11T07:27:43.764Z,7.10
2023-04-11T07:30:12.746Z,7.20
2023-04-11T07:32:40.891Z,7.30
2023-04-11T07:35:09.465Z,7.30
2023-04-11T07:37:37.541Z,7.30
2023-04-11T07:40:11.418Z,7.40
2023-04-11T07:42:41.174Z,7.50
2023-04-11T07:45:09.764Z,7.70
2023-04-11T07:47:37.998Z,7.70
2023-04-11T07:50:06.832Z,7.90
2023-04-11T07:52:35.424Z,8.00
2023-04-11T07:55:04.134Z,8.10
2023-04-11T07:57:32.519Z,8.20
2023-04-11T08:00:02.880Z,8.40
2023-04-11T08:02:31.146Z,8.70
2023-04-11T08:04:59.528Z,9.00
2023-04-11T08:07:27.587Z,9.30
2023-04-11T08:09:55.871Z,9.30
2023-04-11T08:12:24.016Z,9.30
2023-04-11T08:14:52.065Z,9.30
2023-04-11T08:17:28.278Z,9.20
2023-04-11T08:19:57.420Z,9.10
2023-04-11T08:22:26.036Z,9.20
2023-04-11T08:24:54.101Z,9.30
2023-04-11T08:27:22.192Z,9.30
2023-04-11T08:29:50.542Z,9.50
2023-04-11T08:32:18.838Z,9.60
2023-04-11T08:34:48.318Z,9.70
2023-04-11T08:37:16.657Z,9.80
2023-04-11T08:39:44.876Z,10.00
2023-04-11T08:42:23.865Z,10.00
2023-04-11T08:44:55.266Z,10.20
2023-04-11T08:47:23.381Z,10.50
2023-04-11T08:49:53.579Z,10.40
2023-04-11T08:52:22.134Z,10.40
2023-04-11T08:54:54.847Z,10.60
2023-04-11T08:57:27.459Z,10.90
2023-04-11T08:59:57.112Z,11.10
2023-04-11T09:02:25.247Z,11.30
2023-04-11T09:04:55.033Z,11.10
2023-04-11T09:07:23.594Z,11.40
2023-04-11T09:09:51.676Z,11.70
2023-04-11T09:12:29.615Z,11.50
2023-04-11T09:14:57.833Z,11.50
2023-04-11T09:17:25.986Z,11.80
2023-04-11T09:19:55.445Z,11.70
2023-04-11T09:22:36.341Z,11.90
2023-04-11T09:25:05.030Z,12.10
2023-04-11T09:27:33.101Z,11.70
2023-04-11T09:30:03.716Z,11.60
2023-04-11T09:32:34.333Z,11.50
2023-04-11T09:35:15.652Z,11.60
2023-04-11T09:37:48.260Z,11.80
2023-04-11T09:40:18.529Z,11.80
2023-04-11T09:42:47.894Z,11.70
2023-04-11T09:45:19.135Z,11.70
2023-04-11T09:47:48.123Z,12.30
2023-04-11T09:50:17.861Z,12.50
2023-04-11T09:52:46.999Z,12.70
2023-04-11T09:55:16.833Z,13.20
2023-04-11T09:57:47.509Z,13.20
2023-04-11T10:00:18.207Z,13.30
2023-04-11T10:02:48.975Z,13.30
2023-04-11T10:05:27.399Z,13.40
2023-04-11T10:08:03.675Z,13.40
2023-04-11T10:10:33.794Z,13.70
2023-04-11T10:13:01.826Z,14.00
2023-04-11T10:15:30.123Z,14.10
2023-04-11T10:18:09.367Z,14.50
2023-04-11T10:20:50.372Z,13.80
2023-04-11T10:23:18.767Z,13.80
2023-04-11T10:25:55.327Z,14.00
2023-04-11T10:28:38.290Z,13.80
2023-04-11T10:31:09.696Z,14.30
2023-04-11T10:33:39.701Z,14.80
2023-04-11T10:36:11.269Z,14.30
2023-04-11T10:38:49.621Z,13.90
2023-04-11T10:41:27.613Z,13.30
2023-04-11T10:44:14.079Z,13.00
2023-04-11T10:46:47.500Z,12.70
2023-04-11T10:49:36.503Z,11.90
2023-04-11T10:52:23.152Z,11.00
2023-04-11T10:54:52.628Z,10.70
2023-04-11T10:57:21.582Z,10.60
2023-04-11T11:00:00.575Z,10.40
2023-04-11T11:02:41.584Z,10.30
2023-04-11T11:05:24.623Z,10.10
2023-04-11T11:07:55.446Z,9.70
2023-04-11T11:10:43.427Z,9.40
2023-04-11T11:13:11.943Z,9.20
2023-04-11T11:15:40.786Z,9.30
2023-04-11T11:18:10.746Z,9.60
2023-04-11T11:20:38.947Z,10.20
2023-04-11T11:23:10.310Z,11.00
2023-04-11T11:25:38.832Z,11.40
2023-04-11T11:28:09.073Z,11.20
2023-04-11T11:30:38.352Z,11.10
2023-04-11T11:33:24.977Z,11.10
2023-04-11T11:35:54.428Z,11.20
2023-04-11T11:38:27.687Z,11.70
2023-04-11T11:40:57.518Z,11.70
2023-04-11T11:43:27.363Z,11.60
2023-04-11T11:46:09.362Z,11.60
2023-04-11T11:48:38.111Z,11.60
2023-04-11T11:51:07.133Z,11.70
2023-04-11T11:53:36.877Z,11.80
2023-04-11T11:56:16.330Z,11.50
2023-04-11T11:58:45.869Z,11.20
2023-04-11T12:01:17.039Z,11.00
2023-04-11T12:03:48.019Z,11.00
2023-04-11T12:06:17.262Z,11.70
2023-04-11T12:08:51.700Z,12.50
2023-04-11T12:11:22.585Z,12.50
2023-04-11T12:13:54.501Z,12.40
2023-04-11T12:16:23.814Z,12.40
2023-04-11T12:18:52.003Z,12.90
2023-04-11T12:21:20.078Z,13.30
2023-04-11T12:23:49.710Z,13.70
2023-04-11T12:26:20.063Z,13.60
2023-04-11T12:28:48.379Z,13.50
2023-04-11T12:31:16.427Z,13.40
2023-04-11T12:33:45.148Z,13.40
2023-04-11T12:36:14.492Z,13.50
2023-04-11T12:38:42.761Z,13.10
2023-04-11T12:41:30.817Z,12.70
2023-04-11T12:44:02.050Z,12.50
2023-04-11T12:46:30.600Z,12.40
2023-04-11T12:48:58.795Z,12.40
2023-04-11T12:51:27.457Z,12.40
2023-04-11T12:53:55.462Z,13.00
2023-04-11T12:56:26.943Z,13.20
2023-04-11T12:58:55.498Z,13.20
2023-04-11T13:01:23.752Z,13.10
2023-04-11T13:03:52.167Z,13.20
2023-04-11T13:06:20.666Z,13.30
2023-04-11T13:08:48.673Z,13.50
2023-04-11T13:11:16.972Z,13.80
2023-04-11T13:13:46.475Z,14.20
2023-04-11T13:16:14.690Z,14.60
2023-04-11T13:18:43.185Z,15.00
2023-04-11T13:21:11.348Z,15.10
2023-04-11T13:23:39.808Z,15.00
2023-04-11T13:26:08.782Z,15.20
2023-04-11T13:28:38.949Z,15.30
2023-04-11T13:31:10.422Z,15.40
2023-04-11T13:33:40.981Z,14.90
2023-04-11T13:36:11.190Z,14.30
2023-04-11T13:38:39.866Z,13.90
2023-04-11T13:41:08.363Z,13.70
2023-04-11T13:43:36.366Z,13.90
2023-04-11T13:46:04.508Z,14.30
2023-04-11T13:48:34.064Z,14.50
2023-04-11T13:51:02.049Z,14.20
2023-04-11T13:53:30.237Z,14.10
2023-04-11T13:55:58.398Z,14.10
2023-04-11T13:58:26.476Z,14.20
2023-04-11T14:00:54.910Z,14.60
2023-04-11T14:03:24.360Z,15.00
2023-04-11T14:05:54.269Z,15.20
2023-04-11T14:08:22.484Z,15.30
2023-04-11T14:10:50.597Z,14.90
2023-04-11T14:13:18.626Z,14.60
2023-04-11T14:15:49.614Z,15.10
2023-04-11T14:18:20.235Z,15.70
2023-04-11T14:20:48.784Z,15.90
2023-04-11T14:23:18.186Z,16.20
2023-04-11T14:25:46.155Z,16.70
2023-04-11T14:28:14.250Z,16.80
2023-04-11T14:30:42.429Z,16.90
2023-04-11T14:33:10.610Z,16.80
2023-04-11T14:35:38.826Z,17.00
2023-04-11T14:38:06.814Z,17.30
2023-04-11T14:40:36.168Z,17.10
2023-04-11T14:43:04.572Z,16.90
2023-04-11T14:45:32.574Z,16.40
2023-04-11T14:48:00.714Z,16.30
2023-04-11T14:50:29.055Z,16.40
2023-04-11T14:52:57.215Z,16.50
2023-04-11T14:55:25.359Z,17.10
2023-04-11T14:57:55.972Z,17.40
2023-04-11T15:00:25.047Z,16.90
2023-04-11T15:02:54.766Z,16.90
2023-04-11T15:05:24.416Z,17.00
2023-04-11T15:07:53.865Z,16.90
2023-04-11T15:10:23.765Z,16.60
2023-04-11T15:12:51.783Z,16.40
2023-04-11T15:15:21.170Z,16.80
2023-04-11T15:17:51.160Z,17.10
2023-04-11T15:20:20.022Z,17.30
2023-04-11T15:22:49.333Z,17.60
2023-04-11T15:25:17.531Z,17.20
2023-04-11T15:27:45.514Z,16.80
2023-04-11T15:30:13.805Z,15.70
2023-04-11T15:32:44.660Z,15.60
2023-04-11T15:35:12.857Z,14.90
2023-04-11T15:37:40.916Z,14.50
2023-04-11T15:40:12.142Z,14.20
2023-04-11T15:42:40.709Z,14.10
2023-04-11T15:45:09.717Z,14.50
2023-04-11T15:47:37.783Z,15.10
2023-04-11T15:50:08.136Z,15.80
2023-04-11T15:52:36.093Z,15.60
2023-04-11T15:55:05.719Z,15.60
2023-04-11T15:57:33.711Z,15.50
2023-04-11T16:00:01.690Z,15.60
2023-04-11T16:02:29.812Z,15.90
2023-04-11T16:07:27.802Z,15.40
2023-04-11T16:09:55.758Z,15.60
2023-04-11T16:12:23.792Z,15.50
2023-04-11T16:14:51.837Z,15.50
2023-04-11T16:17:20.539Z,15.70
2023-04-11T16:19:51.571Z,15.90
2023-04-11T16:22:19.843Z,16.00
2023-04-11T16:24:49.199Z,15.80
2023-04-11T16:27:17.180Z,15.60
2023-04-11T16:29:45.688Z,15.20
2023-04-11T16:32:13.753Z,14.70
2023-04-11T16:34:41.689Z,14.40
2023-04-11T16:37:09.680Z,14.00
2023-04-11T16:39:37.717Z,13.80
2023-04-11T16:42:07.164Z,13.70
2023-04-11T16:44:35.321Z,13.80
2023-04-11T16:47:03.669Z,13.60
2023-04-11T16:49:32.534Z,13.50
2023-04-11T16:52:00.616Z,13.60
2023-04-11T16:54:28.679Z,13.50
2023-04-11T16:56:56.961Z,13.40
2023-04-11T16:59:26.638Z,13.30
2023-04-11T17:01:55.008Z,13.20
2023-04-11T17:04:23.313Z,13.10
2023-04-11T17:06:51.513Z,13.10
2023-04-11T17:09:19.685Z,13.00
2023-04-11T17:11:47.754Z,12.90
2023-04-11T17:14:16.172Z,12.80
2023-04-11T17:16:46.051Z,12.70
2023-04-11T17:19:14.421Z,12.70
2023-04-11T17:21:42.584Z,12.70
2023-04-11T17:24:10.676Z,12.60
2023-04-11T17:26:38.873Z,12.60
2023-04-11T17:29:07.885Z,12.50
2023-04-11T17:31:36.069Z,12.40
2023-04-11T17:34:05.515Z,12.40
2023-04-11T17:36:33.674Z,12.40
2023-04-11T17:39:01.811Z,12.30
2023-04-11T17:41:30.023Z,12.20
2023-04-11T17:43:58.326Z,12.20
2023-04-11T17:46:27.127Z,12.10
2023-04-11T17:48:55.420Z,12.00
2023-04-11T17:51:24.897Z,12.00
2023-04-11T17:53:52.967Z,11.90
2023-04-11T17:56:21.060Z,11.80
2023-04-11T17:58:50.721Z,11.70
2023-04-11T18:01:19.157Z,11.60
2023-04-11T18:03:47.409Z,11.50
2023-04-11T18:06:15.627Z,11.40
2023-04-11T18:08:50.315Z,11.40
2023-04-11T18:11:19.488Z,11.30
2023-04-11T18:13:50.006Z,11.20
2023-04-11T18:16:18.808Z,11.10
2023-04-11T18:18:48.086Z,11.00
2023-04-11T18:21:16.406Z,11.00
2023-04-11T18:23:45.895Z,10.90
2023-04-11T18:26:13.989Z,10.80
2023-04-11T18:28:42.151Z,10.70
2023-04-11T18:31:11.086Z,10.60
2023-04-11T18:33:42.351Z,10.50
2023-04-11T18:36:12.695Z,10.40
2023-04-11T18:38:40.920Z,10.30
2023-04-11T18:41:10.481Z,10.30
2023-04-11T18:43:39.201Z,10.20
2023-04-11T18:46:09.790Z,10.10
2023-04-11T18:48:39.011Z,10.10
2023-04-11T18:51:07.920Z,10.00
2023-04-11T18:53:36.908Z,9.90
2023-04-11T18:56:05.652Z,9.80
2023-04-11T18:58:45.461Z,9.70
2023-04-11T19:01:16.945Z,9.60
2023-04-11T19:03:46.837Z,9.50
2023-04-11T19:06:16.952Z,9.40
2023-04-11T19:08:45.849Z,9.30
2023-04-11T19:11:13.871Z,9.10
2023-04-11T19:13:43.300Z,9.00
2023-04-11T19:16:11.805Z,8.90
2023-04-11T19:18:40.023Z,8.70
2023-04-11T19:21:08.401Z,8.60
2023-04-11T19:23:36.622Z,8.50
2023-04-11T19:26:04.910Z,8.40
2023-04-11T19:28:32.952Z,8.20
2023-04-11T19:31:02.680Z,8.10
2023-04-11T19:33:30.983Z,8.00
2023-04-11T19:35:59.196Z,7.90
2023-04-11T19:38:27.457Z,7.80
2023-04-11T19:40:56.326Z,7.70
2023-04-11T19:43:24.569Z,7.60
2023-04-11T19:45:52.736Z,7.60
2023-04-11T19:48:22.282Z,7.50
2023-04-11T19:50:50.968Z,7.40
2023-04-11T19:53:19.125Z,7.30
2023-04-11T19:55:52.190Z,7.20
2023-04-11T19:58:21.064Z,7.10
2023-04-11T20:00:49.291Z,7.10
2023-04-11T20:03:17.920Z,7.00
2023-04-11T20:05:47.630Z,6.90
2023-04-11T20:08:15.685Z,6.80
2023-04-11T20:10:43.817Z,6.70
2023-04-11T20:13:11.870Z,6.60
2023-04-11T20:15:40.088Z,6.50
2023-04-11T20:18:08.246Z,6.50
2023-04-11T20:20:36.877Z,6.40
2023-04-11T20:23:07.048Z,6.30
2023-04-11T20:25:35.831Z,6.30
2023-04-11T20:28:04.092Z,6.20
2023-04-11T20:30:32.438Z,6.20
2023-04-11T20:33:01.592Z,6.10
2023-04-11T20:35:32.797Z,6.00
2023-04-11T20:38:00.903Z,6.00
2023-04-11T20:40:30.450Z,5.90
2023-04-11T20:43:00.210Z,5.80
2023-04-11T20:45:30.733Z,5.80
2023-04-11T20:48:01.948Z,5.70
2023-04-11T20:50:33.333Z,5.60
2023-04-11T20:53:02.737Z,5.60
2023-04-11T20:55:33.262Z,5.50
2023-04-11T20:58:01.428Z,5.50
2023-04-11T21:00:30.172Z,5.40
2023-04-11T21:02:58.380Z,5.40
2023-04-11T21:05:27.038Z,5.30
2023-04-11T21:07:55.317Z,5.30
2023-04-11T21:10:23.570Z,5.20
2023-04-11T21:12:53.999Z,5.20
2023-04-11T21:15:22.935Z,5.10
2023-04-11T21:17:52.246Z,5.10
2023-04-11T21:20:21.169Z,5.00
2023-04-11T21:22:52.837Z,4.90
2023-04-11T21:25:21.456Z,4.90
2023-04-11T21:27:49.837Z,4.80
2023-04-11T21:30:19.353Z,4.80
2023-04-11T21:32:47.352Z,4.80
2023-04-11T21:35:15.507Z,4.70
2023-04-11T21:37:43.622Z,4.70
2023-04-11T21:40:12.736Z,4.60
2023-04-11T21:42:40.911Z,4.60
2023-04-11T21:45:10.564Z,4.60
2023-04-11T21:47:40.040Z,4.50
2023-04-11T21:50:09.671Z,4.50
2023-04-11T21:52:37.958Z,4.50
2023-04-11T21:55:09.111Z,4.50
2023-04-11T21:57:39.372Z,4.50
2023-04-11T22:00:10.970Z,4.50
2023-04-11T22:02:46.576Z,4.50
2023-04-11T22:05:17.204Z,4.50
2023-04-11T22:07:48.325Z,4.50
2023-04-11T22:10:23.594Z,4.50
2023-04-11T22:12:54.364Z,4.50
2023-04-11T22:15:24.081Z,4.50
2023-04-11T22:17:54.328Z,4.50
2023-04-11T22:20:22.569Z,4.50
2023-04-11T22:22:50.622Z,4.50
2023-04-11T22:25:22.199Z,4.50
2023-04-11T22:27:54.117Z,4.50
2023-04-11T22:30:24.889Z,4.50
2023-04-11T22:32:56.276Z,4.50
2023-04-11T22:35:25.942Z,4.50
2023-04-11T22:37:55.376Z,4.60
2023-04-11T22:40:23.551Z,4.60
2023-04-11T22:42:52.285Z,4.60
2023-04-11T22:45:21.295Z,4.60
2023-04-11T22:47:54.054Z,4.60
2023-04-11T22:50:25.631Z,4.60
2023-04-11T22:52:54.674Z,4.60
2023-04-11T22:55:24.838Z,4.60
2023-04-11T22:57:52.914Z,4.60
2023-04-11T23:00:23.950Z,4.60
2023-04-11T23:02:52.479Z,4.60
2023-04-11T23:05:20.846Z,4.70
2023-04-11T23:07:50.289Z,4.60
2023-04-11T23:10:19.410Z,4.60
2023-04-11T23:12:49.106Z,4.70
2023-04-11T23:15:17.540Z,4.70
2023-04-11T23:17:45.769Z,4.70
2023-04-11T23:20:14.261Z,4.70
2023-04-11T23:22:43.907Z,4.80
2023-04-11T23:25:14.945Z,4.80
2023-04-11T23:27:45.771Z,4.80
2023-04-11T23:30:15.082Z,4.80
2023-04-11T23:32:43.280Z,4.80
2023-04-11T23:35:11.776Z,4.80
2023-04-11T23:37:41.015Z,4.80
2023-04-11T23:40:13.737Z,4.80
2023-04-11T23:42:45.729Z,4.80
2023-04-11T23:45:14.957Z,4.90
2023-04-11T23:47:43.018Z,4.90
2023-04-11T23:50:13.658Z,4.90
2023-04-11T23:52:41.867Z,4.90
2023-04-11T23:55:10.747Z,4.90
2023-04-11T23:57:39.863Z,5.00
